Allston, MA

5:23 PM EDT on September 02, 2014 (GMT -0400)
Central Square | Change Station
CLOSE
Current Station
Personal Weather Station
Location: Cambridge, MA
Elevation: 24 ft
Nearby Weather Stations

Elev 24 ft 42.36 °N, 71.11 °W | Updated 18 seconds ago

Overcast
Overcast
78.8 °F
Feels Like 82 °F
N
0.0
Wind Variable Wind from North
Gusts 2.0 mph

Today
High -- | Low -- °F
--% Chance of Precip.
Yesterday
High -- | Low -- °F
Precip. -- in
6:10 AM 7:16 PM
First Quarter, 55% visible
Pressure 29.79 in
Visibility 10.0 miles
Clouds Few 2500 ft
Scattered Clouds 7000 ft
Scattered Clouds 10000 ft
Mostly Cloudy 25000 ft
Heat Index 82 °F
Dew Point 75 °F
Humidity 88%
Rainfall 0.30 in
Snow Depth Not available.
UV 0.0 out of 12
Pollen 8.20 out of 12
Ozone Good
PM2.5 Good
Flu Activity Not available.
SPECI KBOS 022110Z 27009KT 10SM FEW025 SCT070 SCT100 BKN250 29/23 A2979 RMK AO2 TSE10RAE10 P0000

More Conditions Fewer Conditions

Pressure 29.79 in
Visibility 10.0 miles
Clouds Few 2500 ft
Scattered Clouds 7000 ft
Scattered Clouds 10000 ft
Mostly Cloudy 25000 ft
Heat Index 82 °F
Dew Point 75 °F
Humidity 88%
Rainfall 0.30 in
Snow Depth Not available.
UV 0.0 out of 12
Pollen 8.20 out of 12
Ozone Good
PM2.5 Good
Flu Activity Not available.
SPECI KBOS 022110Z 27009KT 10SM FEW025 SCT070 SCT100 BKN250 29/23 A2979 RMK AO2 TSE10RAE10 P0000

More Conditions Fewer Conditions

10-Day Weather Forecast

Almanac

Astronomy

Sep. 02, 2014 Rise Set
Actual Time 6:10 AM EDT 7:16 PM EDT
Civil Twilight 5:41 AM EDT 7:45 PM EDT
Nautical Twilight 5:07 AM EDT 8:19 PM EDT
Astronomical Twilight 4:31 AM EDT 8:55 PM EDT
Moon 2:00 PM EDT 11:59 PM EDT
Length of Visible Light 14h 03m
Length of Day
13h 06m
Tomorrow will be 2m 45s shorter.
First Quarter, 55% of the Moon is Illuminated
Today
First Quarter
Sep 8
Full
Sep 15
Last Quarter
Sep 24
New
Oct 1
First Quarter

Today's Extremes

State Highs State Lows

Community

WunderPhotos

Upload Photos

1,749,769 photos uploaded!

Nearby

Air Quality

  Air Quality AQ Index Pollutant
Yesterday Good
PM2.5
Yesterday Good
OZONE
Current Good
PM2.5
Current Good
OZONE
Tuesday Moderate
PM2.5
Tuesday Good
OZONE
Wednesday Good
PM2.5
Wednesday Good
OZONE

Snow Depth

Station Depth Elevation
No new snow has been reported.

Earthquake Activity

City Distance Mag. Time & Date
No recent earthquake activity has been reported nearby.
Minimum magnitude displayed is 2.5.

Coastal Water Temperatures

Place Temperature
Boston, MA 66.9 °F
Providence, RI 75.0 °F
Fall River, MA 75.9 °F
Conimicut Light, RI 75.0 °F

Nearby Weather Stations